Time;durP1;ratioP1;P1;durP2;ratioP2;P2;SDS_P1;SDS_P2;PMS_P1;PMS_P2;Temp;Humidity;BMP_temperature;BMP_pressure;BME280_temperature;BME280_humidity;BME280_pressure;Samples;Min_cycle;Max_cycle;Signal;HPM_P1;HPM_P2
2022/04/25 00:00:04;;;;;;;16.53;14.13;;;8.20;95.60;;;;;;5128942;27;20496;-76
2022/04/25 00:02:39;;;;;;;19.70;14.70;;;8.20;95.70;;;;;;5096454;28;20770;-77
2022/04/25 00:05:09;;;;;;;18.97;15.30;;;8.20;95.70;;;;;;5095012;28;20445;-76
2022/04/25 00:07:38;;;;;;;16.23;14.03;;;8.20;95.80;;;;;;5094615;28;20559;-77
2022/04/25 00:10:07;;;;;;;19.13;14.40;;;8.20;96.10;;;;;;5094784;28;20523;-76
2022/04/25 00:12:35;;;;;;;17.70;15.00;;;8.20;95.90;;;;;;5094850;28;20459;-77
2022/04/25 00:15:04;;;;;;;19.83;14.90;;;8.20;95.90;;;;;;5096288;28;20808;-76
2022/04/25 00:17:32;;;;;;;18.80;15.37;;;8.20;95.90;;;;;;5094713;28;20470;-76
2022/04/25 00:20:01;;;;;;;17.20;15.40;;;8.20;96.00;;;;;;5094446;28;20552;-77
2022/04/25 00:22:30;;;;;;;17.93;16.03;;;8.20;96.00;;;;;;5093544;28;20444;-77
2022/04/25 00:24:58;;;;;;;18.87;16.00;;;8.20;96.10;;;;;;5094478;28;20458;-77
2022/04/25 00:27:28;;;;;;;17.40;14.97;;;8.20;96.10;;;;;;5094460;28;20545;-77
2022/04/25 00:29:57;;;;;;;20.67;16.30;;;8.20;96.10;;;;;;5094757;28;20452;-76
2022/04/25 00:32:25;;;;;;;18.57;15.70;;;8.20;96.20;;;;;;5094407;28;20452;-77
2022/04/25 00:34:53;;;;;;;18.40;15.70;;;8.20;96.20;;;;;;5128504;27;21039;-77
2022/04/25 00:37:21;;;;;;;17.63;15.83;;;8.20;96.20;;;;;;5094079;28;20448;-76
2022/04/25 00:39:51;;;;;;;20.30;15.73;;;8.20;96.20;;;;;;5128404;27;20555;-76
2022/04/25 00:42:19;;;;;;;18.80;16.20;;;8.20;96.30;;;;;;5095440;28;20509;-77
2022/04/25 00:44:47;;;;;;;21.30;16.30;;;8.20;96.30;;;;;;5094048;28;20442;-77
2022/04/25 00:47:18;;;;;;;17.97;16.07;;;8.20;96.40;;;;;;5093983;28;20531;-76
2022/04/25 00:49:46;;;;;;;19.67;16.23;;;8.20;96.40;;;;;;5095649;28;20478;-76
2022/04/25 00:52:14;;;;;;;18.07;16.17;;;8.20;96.40;;;;;;5095122;28;20437;-76
2022/04/25 00:54:42;;;;;;;18.27;16.30;;;8.20;96.50;;;;;;5095078;28;20529;-76
2022/04/25 00:57:12;;;;;;;18.73;16.00;;;8.20;96.50;;;;;;5095061;28;20448;-76
2022/04/25 00:59:41;;;;;;;22.33;16.70;;;8.20;96.50;;;;;;5093704;28;20472;-76
2022/04/25 01:02:09;;;;;;;19.63;16.50;;;8.20;96.50;;;;;;5094884;28;20534;-76
2022/04/25 01:04:37;;;;;;;19.57;15.90;;;8.20;96.60;;;;;;5095046;28;20436;-76
2022/04/25 01:07:06;;;;;;;21.67;18.00;;;8.30;96.60;;;;;;5093560;28;21030;-76
2022/04/25 01:09:35;;;;;;;17.20;14.60;;;8.30;96.70;;;;;;5093555;28;20467;-77
2022/04/25 01:12:03;;;;;;;18.17;15.90;;;8.20;96.60;;;;;;5093486;28;20544;-77
2022/04/25 01:14:33;;;;;;;19.63;15.90;;;8.20;96.70;;;;;;5094945;28;20443;-76
2022/04/25 01:17:02;;;;;;;19.03;16.90;;;8.20;96.70;;;;;;5094659;28;20950;-76
2022/04/25 01:19:30;;;;;;;18.40;15.47;;;8.20;96.70;;;;;;5094450;28;20515;-77
2022/04/25 01:22:00;;;;;;;17.70;14.93;;;8.20;96.80;;;;;;5093219;28;20436;-76
2022/04/25 01:27:19;;;;;;;17.03;15.07;;;8.20;96.80;;;;;;5094633;28;20420;-76
2022/04/25 01:29:48;;;;;;;17.33;15.53;;;8.20;96.80;;;;;;5094390;28;20425;-77
2022/04/25 01:32:18;;;;;;;18.67;15.87;;;8.20;96.90;;;;;;5093288;28;20451;-77
2022/04/25 01:34:47;;;;;;;20.13;15.50;;;8.20;96.90;;;;;;5127238;27;20447;-77
2022/04/25 01:37:16;;;;;;;22.30;16.10;;;8.20;96.90;;;;;;5093083;28;20440;-77
2022/04/25 01:39:48;;;;;;;18.03;16.03;;;8.20;97.00;;;;;;5093050;28;20468;-77
2022/04/25 01:42:18;;;;;;;18.40;16.10;;;8.20;97.00;;;;;;5094586;28;20512;-77
2022/04/25 01:44:47;;;;;;;17.27;15.47;;;8.20;97.00;;;;;;5127018;27;20501;-77
2022/04/25 01:47:15;;;;;;;18.60;15.90;;;8.20;97.00;;;;;;5094421;28;20439;-76
2022/04/25 01:49:46;;;;;;;18.67;16.30;;;8.20;97.00;;;;;;5094851;28;20470;-77
2022/04/25 01:52:20;;;;;;;19.07;14.77;;;8.20;97.00;;;;;;5093065;28;20436;-77
2022/04/25 01:54:50;;;;;;;16.23;14.40;;;8.20;97.10;;;;;;5092982;28;20480;-77
2022/04/25 01:57:18;;;;;;;17.10;14.43;;;8.20;97.10;;;;;;5093974;28;20436;-78
2022/04/25 01:59:47;;;;;;;19.83;15.53;;;8.20;97.10;;;;;;5092994;28;20806;-77
2022/04/25 02:02:16;;;;;;;17.13;15.23;;;8.20;97.10;;;;;;5092658;28;20486;-77
2022/04/25 02:04:47;;;;;;;18.17;15.87;;;8.20;97.20;;;;;;5092697;28;20921;-77
2022/04/25 02:07:15;;;;;;;19.97;15.60;;;8.20;97.20;;;;;;5092614;28;20432;-77
2022/04/25 02:09:44;;;;;;;16.33;14.63;;;8.20;97.20;;;;;;5092659;28;20825;-77
2022/04/25 02:12:13;;;;;;;16.37;13.87;;;8.20;97.20;;;;;;5092611;28;20440;-76
2022/04/25 02:14:42;;;;;;;16.67;13.73;;;8.20;97.20;;;;;;5093946;28;20497;-77
2022/04/25 02:17:13;;;;;;;15.67;13.97;;;8.20;97.20;;;;;;5127996;27;20455;-77
2022/04/25 02:19:44;;;;;;;14.53;13.00;;;8.20;97.20;;;;;;5092397;28;20995;-77
2022/04/25 02:22:13;;;;;;;15.43;13.43;;;8.20;97.20;;;;;;5126659;28;20528;-77
2022/04/25 02:24:42;;;;;;;15.27;13.67;;;8.20;97.20;;;;;;5093747;28;20440;-77
2022/04/25 02:27:10;;;;;;;19.40;14.57;;;8.20;97.30;;;;;;5092489;28;20442;-77
2022/04/25 02:29:40;;;;;;;16.07;13.60;;;8.20;97.30;;;;;;5092366;28;20464;-77
2022/04/25 02:32:12;;;;;;;15.87;13.43;;;8.20;97.30;;;;;;5092448;28;20444;-76
2022/04/25 02:34:42;;;;;;;17.87;13.77;;;8.20;97.30;;;;;;5094358;28;20513;-78
2022/04/25 02:37:10;;;;;;;18.70;14.27;;;8.20;97.30;;;;;;5092381;28;20506;-77
2022/04/25 02:39:38;;;;;;;15.80;13.90;;;8.20;97.30;;;;;;5092106;28;20566;-77
2022/04/25 02:42:07;;;;;;;20.77;14.00;;;8.20;97.30;;;;;;5092321;28;21037;-77
2022/04/25 02:44:35;;;;;;;15.70;13.73;;;8.20;97.30;;;;;;5093549;28;20788;-77
2022/04/25 02:47:05;;;;;;;17.00;14.20;;;8.20;97.30;;;;;;5095015;28;20440;-77
2022/04/25 02:49:34;;;;;;;16.13;14.53;;;8.20;97.30;;;;;;5098114;28;20980;-77
2022/04/25 02:52:02;;;;;;;17.47;13.77;;;8.20;97.40;;;;;;5097355;28;20436;-77
2022/04/25 02:54:30;;;;;;;15.73;13.33;;;8.20;97.40;;;;;;5096214;28;20535;-77
2022/04/25 02:57:00;;;;;;;15.80;13.43;;;8.20;97.40;;;;;;5096096;28;20450;-77
2022/04/25 02:59:28;;;;;;;19.53;14.07;;;8.20;97.40;;;;;;5096028;28;20472;-77
2022/04/25 03:01:56;;;;;;;17.57;13.80;;;8.20;97.40;;;;;;5097238;28;20847;-77
2022/04/25 03:04:26;;;;;;;16.63;13.80;;;8.20;97.40;;;;;;5130053;27;20455;-77
2022/04/25 03:06:55;;;;;;;17.80;13.13;;;8.20;97.40;;;;;;5096778;28;20794;-77
2022/04/25 03:09:23;;;;;;;15.20;13.60;;;8.20;97.40;;;;;;5095760;28;20470;-77
2022/04/25 03:11:52;;;;;;;16.77;14.83;;;8.20;97.50;;;;;;5095937;28;20451;-76
2022/04/25 03:14:20;;;;;;;17.10;14.77;;;8.20;97.50;;;;;;5095830;28;20451;-77
2022/04/25 03:16:49;;;;;;;19.13;15.23;;;8.20;97.50;;;;;;5095747;28;20444;-77
2022/04/25 03:19:18;;;;;;;17.80;14.50;;;8.20;97.50;;;;;;5095674;28;20467;-77
2022/04/25 03:21:48;;;;;;;16.93;15.20;;;8.20;97.50;;;;;;5096789;28;20470;-76
2022/04/25 03:24:16;;;;;;;16.17;13.90;;;8.30;97.60;;;;;;5097067;28;20431;-76
2022/04/25 03:26:44;;;;;;;19.83;16.23;;;8.30;97.60;;;;;;5095605;28;20824;-77
2022/04/25 03:29:13;;;;;;;18.97;16.37;;;8.30;97.60;;;;;;5095342;28;20460;-77
2022/04/25 03:31:42;;;;;;;16.00;13.57;;;8.30;97.60;;;;;;5095604;28;20451;-77
2022/04/25 03:34:11;;;;;;;17.50;14.50;;;8.30;97.60;;;;;;5096946;28;20957;-77
2022/04/25 03:36:39;;;;;;;16.40;14.23;;;8.30;97.60;;;;;;5096770;28;20446;-77
2022/04/25 03:39:09;;;;;;;16.70;13.00;;;8.30;97.60;;;;;;5095380;28;20474;-76
2022/04/25 03:41:37;;;;;;;16.80;14.23;;;8.20;97.60;;;;;;5096434;28;20475;-76
2022/04/25 03:44:05;;;;;;;16.20;14.37;;;8.30;97.60;;;;;;5096878;28;20501;-77
2022/04/25 03:46:33;;;;;;;14.63;12.90;;;8.20;97.60;;;;;;5096452;28;20450;-77
2022/04/25 03:49:02;;;;;;;14.40;12.03;;;8.20;97.60;;;;;;5095163;28;21008;-77
2022/04/25 03:51:30;;;;;;;16.70;13.20;;;8.20;97.60;;;;;;5094902;28;20949;-77
2022/04/25 03:53:58;;;;;;;14.23;12.77;;;8.20;97.60;;;;;;5096015;28;20451;-77
2022/04/25 03:59:13;;;;;;;15.47;13.00;;;8.20;97.70;;;;;;5095247;28;20458;-76
2022/04/25 04:01:42;;;;;;;14.50;12.57;;;8.20;97.70;;;;;;5094756;28;20567;-77
2022/04/25 04:04:11;;;;;;;15.63;13.53;;;8.20;97.70;;;;;;5094827;28;20814;-77
2022/04/25 04:06:39;;;;;;;17.50;13.63;;;8.20;97.70;;;;;;5094714;28;20456;-77
2022/04/25 04:11:52;;;;;;;16.10;13.90;;;8.20;97.80;;;;;;5095830;28;20884;-77
2022/04/25 04:14:20;;;;;;;17.00;14.67;;;8.20;97.90;;;;;;5096004;28;20432;-77
2022/04/25 04:16:48;;;;;;;16.30;13.93;;;8.20;97.90;;;;;;5095820;28;20454;-77
2022/04/25 04:19:17;;;;;;;17.80;15.53;;;8.10;97.90;;;;;;5095761;28;20467;-77
2022/04/25 04:21:45;;;;;;;19.00;17.10;;;8.10;97.90;;;;;;5094370;28;20547;-77
2022/04/25 04:24:13;;;;;;;20.10;18.00;;;8.10;98.00;;;;;;5094520;28;20486;-77
2022/04/25 04:26:42;;;;;;;25.30;22.70;;;8.10;98.00;;;;;;5095921;28;20448;-77
2022/04/25 04:29:12;;;;;;;25.53;22.93;;;8.10;98.00;;;;;;5094351;28;20498;-77
2022/04/25 04:31:40;;;;;;;27.77;25.10;;;8.10;98.10;;;;;;5094330;28;20444;-77
2022/04/25 04:34:08;;;;;;;27.63;24.70;;;8.10;98.20;;;;;;5094467;28;20448;-77
2022/04/25 04:36:36;;;;;;;27.97;25.17;;;8.10;98.20;;;;;;5128556;27;20444;-76
2022/04/25 04:39:05;;;;;;;28.63;25.63;;;8.10;98.20;;;;;;5094086;28;20564;-76
2022/04/25 04:41:33;;;;;;;26.47;23.83;;;8.10;98.30;;;;;;5093957;28;20528;-77
2022/04/25 04:44:02;;;;;;;25.53;22.70;;;8.10;98.60;;;;;;5095526;28;20448;-77
2022/04/25 04:46:32;;;;;;;27.23;24.70;;;8.10;98.40;;;;;;5128169;27;20531;-77
2022/04/25 04:49:00;;;;;;;23.40;20.67;;;8.10;98.40;;;;;;5094084;28;20823;-77
2022/04/25 04:51:28;;;;;;;22.27;19.90;;;8.10;98.40;;;;;;5095150;28;20445;-77
2022/04/25 04:53:59;;;;;;;20.37;18.27;;;8.10;98.50;;;;;;5095059;28;20444;-77
2022/04/25 04:56:27;;;;;;;20.87;17.80;;;8.00;98.50;;;;;;5095045;28;20907;-77
2022/04/25 04:58:56;;;;;;;20.37;18.00;;;8.00;98.50;;;;;;5095130;28;21019;-77
2022/04/25 05:01:24;;;;;;;18.53;16.43;;;8.00;98.50;;;;;;5093812;28;20563;-77
2022/04/25 05:03:58;;;;;;;21.20;17.70;;;8.00;98.50;;;;;;5095580;28;20435;-77
2022/04/25 05:06:27;;;;;;;20.43;17.77;;;8.00;98.60;;;;;;5093580;28;20935;-76
2022/04/25 05:08:55;;;;;;;21.83;17.47;;;8.00;98.60;;;;;;5094566;28;20456;-77
2022/04/25 05:11:23;;;;;;;20.07;17.93;;;8.00;98.60;;;;;;5128303;27;20479;-77
2022/04/25 05:13:52;;;;;;;19.10;17.10;;;8.00;98.70;;;;;;5093593;28;20448;-77
2022/04/25 05:16:20;;;;;;;18.50;16.47;;;8.00;98.70;;;;;;5093523;28;20547;-77
2022/04/25 05:18:48;;;;;;;18.93;15.80;;;8.00;98.70;;;;;;5093406;28;20463;-77
2022/04/25 05:21:18;;;;;;;19.60;16.17;;;8.00;98.70;;;;;;5094803;28;20451;-77
2022/04/25 05:23:53;;;;;;;19.43;17.33;;;8.00;98.80;;;;;;5094645;28;20440;-77
2022/04/25 05:26:21;;;;;;;19.20;15.83;;;8.00;98.80;;;;;;5094536;28;20536;-77
2022/04/25 05:28:49;;;;;;;20.83;17.07;;;8.00;98.80;;;;;;5093154;28;20492;-77
2022/04/25 05:31:18;;;;;;;20.20;16.80;;;8.10;98.90;;;;;;5095203;28;20444;-77
2022/04/25 05:33:46;;;;;;;18.40;16.50;;;8.00;98.90;;;;;;5094370;28;20436;-76
2022/04/25 05:36:14;;;;;;;19.27;17.17;;;8.10;98.90;;;;;;5094859;28;20869;-76
2022/04/25 05:38:44;;;;;;;17.33;15.53;;;8.10;98.90;;;;;;5094489;28;20456;-76
2022/04/25 05:41:12;;;;;;;18.27;16.37;;;8.10;98.90;;;;;;5094756;28;20457;-76
2022/04/25 05:43:40;;;;;;;19.67;16.10;;;8.10;99.00;;;;;;5094413;28;20934;-76
2022/04/25 05:46:09;;;;;;;17.27;15.40;;;8.20;99.10;;;;;;5094288;28;20437;-76
2022/04/25 05:54:27;;;;;;;16.33;14.63;;;8.30;99.10;;;;;;5053399;28;21070;-77
2022/04/25 05:56:56;;;;;;;15.77;14.07;;;8.30;99.20;;;;;;5060450;28;20982;-77
2022/04/25 05:59:24;;;;;;;16.67;14.07;;;8.30;99.20;;;;;;5092616;28;20464;-76
2022/04/25 06:01:54;;;;;;;16.57;13.17;;;8.30;99.20;;;;;;5094688;28;20511;-76
2022/04/25 06:04:22;;;;;;;13.73;12.07;;;8.40;99.30;;;;;;5093506;28;20444;-77
2022/04/25 06:06:57;;;;;;;17.43;13.00;;;8.40;99.20;;;;;;5094343;28;20789;-76
2022/04/25 06:09:26;;;;;;;15.47;12.70;;;8.40;99.20;;;;;;5092640;28;20842;-76
2022/04/25 06:11:55;;;;;;;17.77;12.67;;;8.40;99.20;;;;;;5126664;27;20436;-77
2022/04/25 06:14:23;;;;;;;15.87;13.40;;;8.40;99.20;;;;;;5092884;28;20440;-77
2022/04/25 06:16:51;;;;;;;15.93;13.30;;;8.40;99.20;;;;;;5094189;28;20432;-77
2022/04/25 06:19:21;;;;;;;19.53;13.60;;;8.40;99.20;;;;;;5092480;28;20464;-77
2022/04/25 06:21:49;;;;;;;15.33;12.90;;;8.40;99.20;;;;;;5091753;28;20463;-76
2022/04/25 06:24:17;;;;;;;17.40;14.10;;;8.40;99.20;;;;;;5094497;28;20440;-77
2022/04/25 06:26:49;;;;;;;15.70;13.17;;;8.40;99.20;;;;;;5092445;28;20459;-76
2022/04/25 06:29:18;;;;;;;15.93;13.80;;;8.40;99.30;;;;;;5092520;28;20464;-77
2022/04/25 06:31:48;;;;;;;15.73;13.43;;;8.40;99.20;;;;;;5092616;28;20440;-76
2022/04/25 06:34:17;;;;;;;15.97;14.23;;;8.50;99.30;;;;;;5094268;28;20523;-77
2022/04/25 06:36:46;;;;;;;17.77;13.53;;;8.40;99.20;;;;;;5092481;28;20444;-77
2022/04/25 06:39:14;;;;;;;17.53;13.60;;;8.40;99.20;;;;;;5092436;28;20492;-77
2022/04/25 06:41:43;;;;;;;17.20;13.40;;;8.40;99.20;;;;;;5093912;28;20432;-76
2022/04/25 06:44:13;;;;;;;17.77;13.40;;;8.40;99.20;;;;;;5092736;28;20954;-77
2022/04/25 06:46:42;;;;;;;18.73;14.23;;;8.50;99.30;;;;;;5093471;28;21022;-76
2022/04/25 06:49:24;;;;;;;16.67;13.20;;;8.50;99.30;;;;;;5092399;28;20469;-77
2022/04/25 06:51:53;;;;;;;17.57;15.77;;;8.50;99.30;;;;;;5092842;28;20452;-76
2022/04/25 06:54:22;;;;;;;16.80;14.97;;;8.50;99.30;;;;;;5093538;28;20851;-76
2022/04/25 06:56:50;;;;;;;17.07;13.67;;;8.60;99.40;;;;;;5093370;28;20481;-76
2022/04/25 06:59:21;;;;;;;17.00;15.10;;;8.60;99.70;;;;;;5094324;28;20462;-76
2022/04/25 07:01:50;;;;;;;17.37;14.67;;;8.60;99.40;;;;;;5092361;28;20516;-77
2022/04/25 07:04:19;;;;;;;20.77;15.67;;;8.70;99.40;;;;;;5092026;28;20472;-77
2022/04/25 07:06:48;;;;;;;18.97;15.03;;;8.60;99.40;;;;;;5092272;28;20436;-76
2022/04/25 07:09:18;;;;;;;17.70;13.93;;;8.70;99.40;;;;;;5092646;28;20483;-76
2022/04/25 07:11:47;;;;;;;16.97;14.47;;;8.70;99.40;;;;;;5092587;28;20787;-77
2022/04/25 07:14:16;;;;;;;16.77;14.10;;;8.70;99.40;;;;;;5093265;28;20958;-76
2022/04/25 07:16:49;;;;;;;18.00;14.20;;;8.70;99.40;;;;;;5126626;28;20444;-76
2022/04/25 07:19:22;;;;;;;19.27;14.20;;;8.70;99.40;;;;;;5092163;28;20881;-77
2022/04/25 07:30:09;;;;;;;17.93;13.73;;;8.80;99.20;;;;;;5091836;28;20444;-77
2022/04/25 07:32:40;;;;;;;19.10;15.30;;;8.80;99.20;;;;;;5095133;28;20462;-76
2022/04/25 07:35:09;;;;;;;19.23;15.10;;;8.80;99.40;;;;;;5095902;28;20497;-76
2022/04/25 07:37:37;;;;;;;18.40;15.13;;;8.80;99.10;;;;;;5097037;28;20519;-76
2022/04/25 07:40:08;;;;;;;19.00;16.07;;;8.80;99.00;;;;;;5095344;28;20543;-76
2022/04/25 07:42:38;;;;;;;19.30;15.83;;;8.80;99.00;;;;;;5095514;28;20459;-77
2022/04/25 07:45:08;;;;;;;19.33;16.07;;;8.80;99.00;;;;;;5095521;28;20978;-77
2022/04/25 07:47:39;;;;;;;18.23;16.33;;;8.90;99.00;;;;;;5095200;28;20547;-76
2022/04/25 07:50:08;;;;;;;22.07;17.10;;;8.80;98.90;;;;;;5095060;28;20856;-76
2022/04/25 07:52:36;;;;;;;20.77;17.60;;;8.80;98.90;;;;;;5095375;28;20460;-76
2022/04/25 07:55:06;;;;;;;20.77;17.90;;;8.90;98.90;;;;;;5095354;28;20482;-77
2022/04/25 07:57:35;;;;;;;19.67;17.57;;;8.90;98.80;;;;;;5094942;28;20451;-76
2022/04/25 08:00:04;;;;;;;22.77;18.40;;;8.90;98.80;;;;;;5096713;28;20478;-76
2022/04/25 08:02:34;;;;;;;21.70;17.93;;;8.90;98.90;;;;;;5096758;28;20521;-77
2022/04/25 08:05:04;;;;;;;19.80;17.37;;;8.90;98.90;;;;;;5095113;28;20860;-77
2022/04/25 08:07:32;;;;;;;22.37;18.97;;;8.90;98.80;;;;;;5096257;28;20448;-76
2022/04/25 08:10:00;;;;;;;21.13;18.87;;;9.00;98.90;;;;;;5129207;27;20455;-76
2022/04/25 08:18:13;;;;;;;21.13;18.87;;;9.00;98.80;;;;;;5093943;28;20496;-76
2022/04/25 08:20:43;;;;;;;21.37;18.50;;;9.00;98.80;;;;;;5095029;28;20444;-76
2022/04/25 08:23:13;;;;;;;22.53;20.13;;;9.10;98.80;;;;;;5095947;28;20521;-76
2022/04/25 08:25:42;;;;;;;22.57;20.17;;;9.10;98.70;;;;;;5128637;27;20448;-76
2022/04/25 08:28:14;;;;;;;23.80;19.40;;;9.10;98.70;;;;;;5094981;28;20472;-76
2022/04/25 08:30:42;;;;;;;24.70;21.70;;;9.10;98.70;;;;;;5096179;28;20502;-76
2022/04/25 08:33:11;;;;;;;23.33;19.83;;;9.20;98.80;;;;;;5094262;28;20951;-76
2022/04/25 08:35:39;;;;;;;21.57;19.27;;;9.20;98.70;;;;;;5095802;28;20466;-76
2022/04/25 08:38:09;;;;;;;21.40;19.20;;;9.20;98.70;;;;;;5128542;27;20514;-76
2022/04/25 08:40:38;;;;;;;24.23;20.27;;;9.20;98.70;;;;;;5095403;28;20535;-76
2022/04/25 08:43:07;;;;;;;23.53;21.13;;;9.20;98.70;;;;;;5093772;28;20480;-76
2022/04/25 08:45:38;;;;;;;22.63;20.30;;;9.30;98.70;;;;;;5094055;28;20440;-76
2022/04/25 08:48:07;;;;;;;25.27;22.67;;;9.30;98.70;;;;;;5129317;27;20479;-76
2022/04/25 08:50:38;;;;;;;21.73;19.43;;;9.40;98.70;;;;;;5095901;28;20953;-76
2022/04/25 08:53:08;;;;;;;18.03;16.10;;;9.40;98.70;;;;;;5095326;28;20858;-76
2022/04/25 08:55:36;;;;;;;17.30;14.53;;;9.50;98.60;;;;;;5094244;28;20455;-76
2022/04/25 08:58:06;;;;;;;16.03;14.00;;;9.60;98.60;;;;;;5093691;28;20468;-81
2022/04/25 09:00:34;;;;;;;14.77;13.20;;;9.60;98.50;;;;;;5127868;27;20448;-76
2022/04/25 09:03:02;;;;;;;19.73;13.67;;;9.70;98.50;;;;;;5093974;28;20441;-76
2022/04/25 09:05:31;;;;;;;15.27;13.67;;;9.70;98.40;;;;;;5093605;28;20445;-76
2022/04/25 09:07:59;;;;;;;15.27;13.10;;;9.80;98.30;;;;;;5093304;28;20464;-76
2022/04/25 09:10:30;;;;;;;15.67;12.70;;;9.80;98.20;;;;;;5095155;28;20947;-76
2022/04/25 09:12:59;;;;;;;15.93;12.90;;;9.80;98.10;;;;;;5093848;28;20452;-76
2022/04/25 09:15:27;;;;;;;18.00;16.13;;;9.90;98.20;;;;;;5093414;28;20455;-76
2022/04/25 09:17:57;;;;;;;23.50;21.00;;;9.90;98.20;;;;;;5093654;28;20534;-76
2022/04/25 09:20:27;;;;;;;25.17;22.67;;;10.00;97.70;;;;;;5095053;28;20835;-78
2022/04/25 09:22:56;;;;;;;23.77;21.37;;;10.10;97.70;;;;;;5093315;28;20436;-76
2022/04/25 09:25:26;;;;;;;24.97;21.00;;;10.10;97.60;;;;;;5127333;27;21002;-76
2022/04/25 09:28:15;;;;;;;24.33;21.60;;;10.20;97.60;;;;;;5093662;28;20471;-76
2022/04/25 09:30:57;;;;;;;23.23;20.83;;;10.30;97.70;;;;;;5093622;28;20444;-76
2022/04/25 09:33:27;;;;;;;23.10;20.83;;;10.30;97.60;;;;;;5093255;28;20447;-76
2022/04/25 09:35:56;;;;;;;22.83;20.60;;;10.30;97.60;;;;;;5093577;28;20444;-76
2022/04/25 09:38:33;;;;;;;21.60;19.30;;;10.30;97.40;;;;;;5093304;28;20479;-76
2022/04/25 09:41:01;;;;;;;21.40;19.10;;;10.30;97.30;;;;;;5094397;28;20475;-76
2022/04/25 09:43:32;;;;;;;21.03;18.83;;;10.30;97.20;;;;;;5092962;28;20442;-76
2022/04/25 09:46:01;;;;;;;20.33;18.23;;;10.30;97.20;;;;;;5093397;28;20946;-76
2022/04/25 09:48:29;;;;;;;19.67;17.57;;;10.30;97.20;;;;;;5093137;28;20464;-76
2022/04/25 09:51:02;;;;;;;20.00;17.23;;;10.40;97.20;;;;;;5093017;28;20834;-78
2022/04/25 09:53:47;;;;;;;16.80;15.00;;;10.40;97.10;;;;;;5094440;28;20498;-77
2022/04/25 09:56:18;;;;;;;16.63;13.67;;;10.50;97.00;;;;;;5094341;28;20425;-76
2022/04/25 09:59:00;;;;;;;13.93;12.30;;;10.50;97.00;;;;;;5126696;27;20472;-76
2022/04/25 10:01:30;;;;;;;13.73;11.00;;;10.60;96.90;;;;;;5093046;28;20851;-75
2022/04/25 10:03:59;;;;;;;15.53;11.23;;;10.80;96.90;;;;;;5092979;28;21089;-76
2022/04/25 10:06:31;;;;;;;11.90;10.17;;;10.90;96.90;;;;;;5092540;28;20468;-76
2022/04/25 10:09:02;;;;;;;15.43;10.77;;;11.10;96.90;;;;;;5092524;28;20511;-76
2022/04/25 10:11:34;;;;;;;14.80;10.90;;;11.30;96.80;;;;;;5094908;28;20507;-76
2022/04/25 10:14:04;;;;;;;15.00;9.77;;;11.40;96.70;;;;;;5092600;28;20502;-76
2022/04/25 10:16:34;;;;;;;14.80;9.70;;;11.50;96.60;;;;;;5092372;28;20448;-76
2022/04/25 10:19:04;;;;;;;12.13;10.23;;;11.60;96.60;;;;;;5092615;28;20468;-76
2022/04/25 10:21:36;;;;;;;15.60;10.03;;;11.80;96.70;;;;;;5094166;28;20448;-76
2022/04/25 10:24:06;;;;;;;13.13;10.30;;;11.90;96.70;;;;;;5092445;28;20559;-76
2022/04/25 10:26:34;;;;;;;15.07;10.23;;;12.00;96.50;;;;;;5092731;28;20535;-76
2022/04/25 10:29:10;;;;;;;13.30;9.97;;;12.10;96.40;;;;;;5092525;28;20468;-76
2022/04/25 10:31:42;;;;;;;14.20;10.30;;;12.20;96.30;;;;;;5093809;28;20428;-76
2022/04/25 10:34:14;;;;;;;13.87;10.27;;;12.30;96.30;;;;;;5092281;28;20946;-76
2022/04/25 10:36:44;;;;;;;14.00;9.20;;;12.30;96.10;;;;;;5092874;28;20429;-77
2022/04/25 10:39:13;;;;;;;13.00;9.53;;;12.40;96.20;;;;;;5092993;28;20559;-76
2022/04/25 10:44:57;;;;;;;15.37;10.97;;;12.60;95.80;;;;;;5094118;28;20493;-76
2022/04/25 10:47:28;;;;;;;14.87;10.27;;;12.60;95.50;;;;;;5092303;28;20532;-76
2022/04/25 10:50:05;;;;;;;13.87;9.80;;;12.60;95.50;;;;;;5093811;28;20424;-76
2022/04/25 10:52:56;;;;;;;13.30;9.93;;;12.70;95.60;;;;;;5093596;28;20542;-76
2022/04/25 10:55:45;;;;;;;13.00;10.50;;;12.80;95.60;;;;;;5092233;28;20464;-75
2022/04/25 10:58:18;;;;;;;12.47;9.93;;;12.90;95.40;;;;;;5093352;28;20463;-76
2022/04/25 11:00:52;;;;;;;14.13;10.27;;;13.00;95.40;;;;;;5093652;28;20455;-76
2022/04/25 11:03:26;;;;;;;13.47;10.40;;;13.10;95.40;;;;;;5094042;28;20770;-76
2022/04/25 11:05:56;;;;;;;14.83;10.13;;;13.20;95.30;;;;;;5093342;28;20451;-76
2022/04/25 11:08:38;;;;;;;12.67;9.40;;;13.30;95.20;;;;;;5097013;28;20814;-76
2022/04/25 11:11:20;;;;;;;14.00;10.73;;;13.30;95.20;;;;;;5096156;28;20458;-75
2022/04/25 11:14:14;;;;;;;12.23;9.63;;;13.40;95.10;;;;;;5097043;28;20422;-76
2022/04/25 11:16:43;;;;;;;11.23;9.50;;;13.60;95.20;;;;;;5097234;28;20459;-75
2022/04/25 11:19:20;;;;;;;13.27;11.27;;;13.70;95.10;;;;;;5096834;28;20467;-75
2022/04/25 11:21:55;;;;;;;14.93;10.87;;;13.80;95.00;;;;;;5097461;28;20428;-75
2022/04/25 11:24:30;;;;;;;12.43;10.17;;;13.80;94.70;;;;;;5096728;28;20983;-76
2022/04/25 11:27:00;;;;;;;12.83;9.63;;;13.90;94.70;;;;;;5095863;28;20504;-76
2022/04/25 11:29:29;;;;;;;11.57;9.67;;;13.90;95.00;;;;;;5129878;27;20468;-76
2022/04/25 11:32:24;;;;;;;12.43;9.60;;;14.00;94.70;;;;;;5095516;28;20994;-76
2022/04/25 11:34:58;;;;;;;13.80;10.60;;;14.10;94.60;;;;;;5095565;28;20452;-76
2022/04/25 11:37:28;;;;;;;13.27;10.07;;;14.10;94.50;;;;;;5129993;27;20877;-75
2022/04/25 11:40:01;;;;;;;13.20;10.57;;;14.20;94.40;;;;;;5096586;28;20443;-76
2022/04/25 11:42:30;;;;;;;11.90;10.17;;;14.30;94.40;;;;;;5097021;28;20512;-75
2022/04/25 11:44:59;;;;;;;12.77;10.47;;;14.40;94.30;;;;;;5096932;28;20468;-76
2022/04/25 11:47:29;;;;;;;12.57;8.93;;;14.50;94.40;;;;;;5096513;28;20403;-76
2022/04/25 11:50:01;;;;;;;13.10;9.80;;;14.60;94.40;;;;;;5095545;28;20423;-76
2022/04/25 11:52:30;;;;;;;12.40;9.83;;;14.70;94.30;;;;;;5096754;28;20459;-76
2022/04/25 11:54:59;;;;;;;12.50;9.87;;;14.80;94.10;;;;;;5098278;28;20488;-76
2022/04/25 11:57:28;;;;;;;11.77;9.80;;;14.80;93.80;;;;;;5094739;28;20803;-76
2022/04/25 12:00:14;;;;;;;12.47;9.60;;;14.80;93.70;;;;;;5096525;28;20436;-76
2022/04/25 12:02:42;;;;;;;16.23;11.00;;;14.90;93.60;;;;;;5095941;28;20445;-75
2022/04/25 12:05:13;;;;;;;12.40;9.80;;;14.90;93.70;;;;;;5096133;28;20439;-76
2022/04/25 12:16:01;;;;;;;12.17;9.40;;;15.10;93.10;;;;;;5094653;28;20439;-76
2022/04/25 12:18:32;;;;;;;11.80;9.80;;;15.10;93.10;;;;;;5093503;28;21197;-75
2022/04/25 12:21:06;;;;;;;12.87;10.00;;;15.10;93.10;;;;;;5096215;28;20425;-76
2022/04/25 12:23:36;;;;;;;13.63;10.50;;;15.20;93.00;;;;;;5128519;27;20415;-76
2022/04/25 12:26:06;;;;;;;12.03;9.33;;;15.20;92.90;;;;;;5096124;28;20857;-75
2022/04/25 12:28:37;;;;;;;12.37;10.57;;;15.30;92.90;;;;;;5094613;28;20807;-76
2022/04/25 12:31:08;;;;;;;11.87;9.70;;;15.40;92.90;;;;;;5095511;28;20448;-76
2022/04/25 12:33:38;;;;;;;14.10;10.57;;;15.50;92.70;;;;;;5094449;28;20460;-76
2022/04/25 12:36:15;;;;;;;15.13;10.03;;;15.60;92.60;;;;;;5094914;28;20849;-75
2022/04/25 12:38:46;;;;;;;13.60;9.87;;;15.60;92.50;;;;;;5095827;28;20456;-76
2022/04/25 12:41:21;;;;;;;13.87;10.17;;;15.70;92.50;;;;;;5095203;28;20414;-76
2022/04/25 12:43:53;;;;;;;13.83;10.20;;;15.80;92.50;;;;;;5094695;28;20444;-75
2022/04/25 12:46:39;;;;;;;14.60;10.30;;;15.90;92.60;;;;;;5094102;28;20439;-76
2022/04/25 12:49:10;;;;;;;12.03;9.30;;;15.90;91.90;;;;;;5095178;28;20452;-76
2022/04/25 12:51:46;;;;;;;12.70;9.27;;;15.90;92.00;;;;;;5094227;28;20415;-76
2022/04/25 12:54:37;;;;;;;12.40;9.37;;;15.90;92.00;;;;;;5095191;28;20439;-76
2022/04/25 12:57:13;;;;;;;14.00;9.80;;;16.00;92.10;;;;;;5090766;28;20411;-76
2022/04/25 12:59:43;;;;;;;12.47;10.20;;;16.00;92.00;;;;;;5095292;28;20442;-76
2022/04/25 13:02:14;;;;;;;13.00;10.00;;;16.10;92.00;;;;;;5094050;28;21050;-76
2022/04/25 13:04:51;;;;;;;11.13;9.70;;;16.20;91.90;;;;;;5093688;28;20452;-76
2022/04/25 13:07:23;;;;;;;11.97;9.80;;;16.30;91.90;;;;;;5101439;28;20547;-76
2022/04/25 13:09:53;;;;;;;12.90;9.40;;;16.40;91.70;;;;;;5103463;28;20416;-77
2022/04/25 13:12:22;;;;;;;11.80;9.93;;;16.50;92.00;;;;;;5100863;28;20446;-76
2022/04/25 13:14:50;;;;;;;12.90;9.93;;;16.60;91.60;;;;;;5102387;28;20490;-76
2022/04/25 13:17:18;;;;;;;13.90;10.50;;;16.70;91.50;;;;;;5101654;28;20428;-77
2022/04/25 13:19:46;;;;;;;14.03;10.07;;;16.80;91.40;;;;;;5098484;28;20531;-76
2022/04/25 13:22:14;;;;;;;13.40;10.00;;;16.90;91.20;;;;;;5098794;28;20510;-77
2022/04/25 13:24:45;;;;;;;13.00;10.30;;;17.00;91.10;;;;;;5097751;28;20411;-77
2022/04/25 13:27:14;;;;;;;12.43;9.33;;;17.10;91.10;;;;;;5099107;28;20487;-76
2022/04/25 13:29:42;;;;;;;16.30;10.80;;;17.20;91.00;;;;;;5097040;28;21101;-77